Time;durP1;ratioP1;P1;durP2;ratioP2;P2;SDS_P1;SDS_P2;PMS_P1;PMS_P2;Temp;Humidity;BMP_temperature;BMP_pressure;BME280_temperature;BME280_humidity;BME280_pressure;Samples;Min_cycle;Max_cycle;Signal;HPM_P1;HPM_P2
2021/06/29 00:00:10;;;;;;;8.43;7.73;;;;;;;22.44;64.70;101270.06;3602968;40;20283;-82
2021/06/29 00:02:35;;;;;;;7.97;7.27;;;;;;;22.44;64.23;101267.44;3603181;40;20618;-85
2021/06/29 00:05:00;;;;;;;9.10;8.20;;;;;;;22.46;63.59;101273.53;3602737;40;20222;-85
2021/06/29 00:07:26;;;;;;;8.07;7.37;;;;;;;22.45;64.28;101269.19;3602576;40;20213;-85
2021/06/29 00:09:51;;;;;;;7.93;7.20;;;;;;;22.51;64.25;101263.81;3601823;40;20235;-85
2021/06/29 00:12:16;;;;;;;8.63;7.80;;;;;;;22.43;64.94;101266.59;3602869;40;20228;-86
2021/06/29 00:14:44;;;;;;;8.23;7.43;;;;;;;22.38;64.99;101264.13;3610560;39;20220;-83
2021/06/29 00:17:10;;;;;;;7.83;7.13;;;;;;;22.35;65.19;101257.22;3613088;39;20228;-83
2021/06/29 00:19:36;;;;;;;8.00;7.20;;;;;;;22.33;65.15;101255.53;3651810;22;20240;-85
2021/06/29 00:22:01;;;;;;;8.30;7.60;;;;;;;22.28;65.74;101251.25;3615436;39;20223;-83
2021/06/29 00:24:26;;;;;;;8.70;7.87;;;;;;;22.23;65.59;101253.13;3612797;39;20293;-83
2021/06/29 00:26:52;;;;;;;8.40;7.33;;;;;;;22.20;65.38;101260.16;3612592;39;20227;-85
2021/06/29 00:29:17;;;;;;;8.13;7.33;;;;;;;22.17;64.80;101263.69;3612666;39;20661;-82
2021/06/29 00:31:42;;;;;;;8.33;7.63;;;;;;;22.10;66.16;101258.63;3613399;39;20215;-85
2021/06/29 00:34:08;;;;;;;7.87;7.10;;;;;;;22.06;65.62;101255.22;3613205;39;20216;-84
2021/06/29 00:36:33;;;;;;;8.07;7.37;;;;;;;22.08;64.84;101266.50;3613293;39;20201;-85
2021/06/29 00:38:59;;;;;;;8.37;7.57;;;;;;;22.07;64.58;101271.75;3612821;39;20269;-82
2021/06/29 00:41:24;;;;;;;9.67;8.30;;;;;;;22.03;64.67;101276.13;3612742;39;20235;-84
2021/06/29 00:43:51;;;;;;;7.50;6.87;;;;;;;21.89;64.86;101272.09;3612451;40;20224;-85
2021/06/29 00:46:17;;;;;;;7.65;6.95;;;;;;;21.86;66.00;101275.63;3612511;39;20219;-83
2021/06/29 00:48:44;;;;;;;8.20;7.50;;;;;;;21.87;65.20;101268.66;3611950;39;20684;-82
2021/06/29 00:51:18;;;;;;;8.27;7.47;;;;;;;21.82;65.75;101276.59;3611725;39;20264;-80
2021/06/29 00:53:45;;;;;;;8.50;7.70;;;;;;;21.84;65.20;101273.94;3611844;39;20220;-85
2021/06/29 00:56:14;;;;;;;8.43;7.63;;;;;;;21.75;65.40;101280.19;3611971;39;20644;-83
2021/06/29 00:58:43;;;;;;;8.13;7.33;;;;;;;21.61;65.54;101282.16;3612209;39;20224;-81
2021/06/29 01:01:09;;;;;;;8.60;7.40;;;;;;;21.57;65.50;101277.91;3612456;39;20252;-87
2021/06/29 01:03:36;;;;;;;9.17;8.13;;;;;;;21.57;65.22;101280.53;3612298;39;20610;-88
2021/06/29 01:06:01;;;;;;;8.43;7.60;;;;;;;21.45;66.22;101274.66;3612040;39;20220;-85
2021/06/29 01:08:26;;;;;;;8.83;7.50;;;;;;;21.44;65.99;101273.81;3612408;39;20230;-86
2021/06/29 01:10:52;;;;;;;8.20;7.50;;;;;;;21.44;65.20;101266.00;3611800;39;20232;-86
2021/06/29 01:13:46;;;;;;;8.13;7.33;;;;;;;21.38;65.84;101260.88;3612814;39;20227;-86
2021/06/29 01:16:13;;;;;;;7.43;6.83;;;;;;;21.31;66.00;101264.47;3599500;39;20240;-87
2021/06/29 01:18:49;;;;;;;7.80;7.10;;;;;;;21.28;65.74;101256.72;3612667;39;20720;-85
2021/06/29 01:21:17;;;;;;;8.10;7.30;;;;;;;21.21;65.93;101269.88;3611957;39;20598;-82
2021/06/29 01:23:47;;;;;;;10.48;7.93;;;;;;;21.22;65.96;101264.66;3612775;39;20221;-82
2021/06/29 01:26:28;;;;;;;8.90;8.00;;;;;;;21.16;66.46;101267.38;3612400;39;20235;-86
2021/06/29 01:29:03;;;;;;;8.47;7.77;;;;;;;21.15;66.87;101260.41;3612884;39;20227;-81
2021/06/29 01:31:29;;;;;;;8.30;7.53;;;;;;;21.19;66.75;101253.41;3612505;39;20234;-84
2021/06/29 01:33:55;;;;;;;8.37;7.40;;;;;;;21.16;66.03;101243.03;3612784;39;20209;-82
2021/06/29 01:36:27;;;;;;;8.93;7.97;;;;;;;21.12;66.59;101249.19;3612812;39;20212;-81
2021/06/29 01:38:54;;;;;;;8.17;7.43;;;;;;;21.07;66.57;101251.00;3612807;39;20222;-82
2021/06/29 01:46:14;;;;;;;8.23;7.37;;;;;;;20.97;66.18;101246.84;3612958;39;20208;-87
2021/06/29 01:51:07;;;;;;;8.23;7.43;;;;;;;21.00;67.17;101239.00;3591726;40;20682;-84
2021/06/29 01:53:33;;;;;;;8.63;7.77;;;;;;;20.91;66.96;101229.56;3591667;40;20229;-81
2021/06/29 01:55:58;;;;;;;8.90;8.00;;;;;;;20.94;67.03;101234.75;3592483;40;20448;-81
2021/06/29 01:58:27;;;;;;;8.30;7.47;;;;;;;20.93;66.66;101229.53;3609225;39;20273;-82
2021/06/29 02:00:53;;;;;;;8.27;7.40;;;;;;;20.92;65.88;101227.84;3591938;40;20244;-84
2021/06/29 02:03:19;;;;;;;7.90;7.20;;;;;;;20.85;66.17;101223.56;3591561;40;20226;-83
2021/06/29 02:05:44;;;;;;;8.00;7.20;;;;;;;20.80;66.71;101228.88;3591546;40;20564;-84
2021/06/29 02:08:10;;;;;;;8.13;7.33;;;;;;;20.82;66.28;101215.81;3591420;40;20286;-85
2021/06/29 02:10:35;;;;;;;8.33;7.53;;;;;;;20.80;66.31;101221.06;3591558;40;20253;-86
2021/06/29 02:13:01;;;;;;;7.87;7.27;;;;;;;20.78;65.81;101220.19;3591809;40;20225;-82
2021/06/29 02:15:45;;;;;;;8.13;7.33;;;;;;;20.70;66.40;101211.69;3591831;40;20240;-85
2021/06/29 02:18:10;;;;;;;8.07;7.33;;;;;;;20.66;66.80;101214.34;3592369;40;20213;-84
2021/06/29 02:20:35;;;;;;;8.53;7.77;;;;;;;20.64;66.00;101219.56;3591660;40;20620;-88
2021/06/29 02:23:00;;;;;;;8.00;7.30;;;;;;;20.56;66.71;101213.63;3591513;40;20233;-84
2021/06/29 02:25:26;;;;;;;8.60;7.90;;;;;;;20.50;68.48;101211.09;3591597;40;20602;-85
2021/06/29 02:27:52;;;;;;;9.03;8.20;;;;;;;20.56;67.92;101218.84;3592239;40;20291;-84
2021/06/29 02:30:17;;;;;;;7.97;7.23;;;;;;;20.50;67.40;101208.50;3591391;40;20246;-83
2021/06/29 02:32:43;;;;;;;8.57;7.60;;;;;;;20.47;68.86;101213.78;3591662;40;20229;-84
2021/06/29 02:35:09;;;;;;;8.13;7.33;;;;;;;20.46;68.20;101213.78;3591569;40;20224;-84
2021/06/29 02:37:34;;;;;;;9.13;8.23;;;;;;;20.49;67.58;101206.78;3591943;40;20596;-82
2021/06/29 02:39:59;;;;;;;10.33;8.67;;;;;;;20.39;68.16;101201.72;3591449;40;20234;-82
2021/06/29 02:42:24;;;;;;;8.80;7.10;;;;;;;20.13;69.14;101198.66;3591763;40;20252;-86
2021/06/29 02:44:50;;;;;;;8.60;7.80;;;;;;;20.21;67.74;101195.06;3591720;40;20275;-83
2021/06/29 02:52:11;;;;;;;9.60;7.37;;;;;;;20.21;68.11;101195.06;3609026;39;20272;-85
2021/06/29 02:57:04;;;;;;;8.47;7.50;;;;;;;20.31;67.94;101194.03;3610906;39;20256;-82
2021/06/29 02:59:30;;;;;;;10.07;8.57;;;;;;;20.35;67.52;101192.25;3612397;39;20256;-84
2021/06/29 03:01:55;;;;;;;8.57;7.67;;;;;;;20.40;67.22;101193.06;3603483;39;20210;-85
2021/06/29 03:06:48;;;;;;;9.23;8.10;;;;;;;20.42;67.45;101194.78;3622241;39;20287;-85
2021/06/29 03:09:13;;;;;;;10.70;8.43;;;;;;;20.39;67.04;101184.41;3623713;39;20778;-85
2021/06/29 03:11:39;;;;;;;7.53;6.87;;;;;;;20.38;67.46;101197.41;3623631;39;20277;-83
2021/06/29 03:14:05;;;;;;;7.50;6.80;;;;;;;20.35;68.30;101198.31;3623464;39;20216;-84
2021/06/29 03:16:31;;;;;;;8.13;7.43;;;;;;;20.36;68.49;101200.03;3624001;39;20250;-83
2021/06/29 03:18:58;;;;;;;8.83;8.00;;;;;;;20.38;68.57;101206.09;3623485;39;20252;-86
2021/06/29 03:21:23;;;;;;;9.50;8.47;;;;;;;20.39;68.64;101214.75;3623406;39;20242;-86
2021/06/29 03:23:50;;;;;;;11.70;8.37;;;;;;;20.41;68.73;101218.19;3631992;39;20234;-84
2021/06/29 03:26:15;;;;;;;10.97;9.83;;;;;;;20.40;69.07;101225.13;3623834;39;20721;-82
2021/06/29 03:31:08;;;;;;;15.43;14.03;;;;;;;20.64;68.71;101231.72;3612231;39;20315;-83
2021/06/29 03:33:34;;;;;;;15.00;13.43;;;;;;;20.62;69.21;101233.47;3611909;39;20232;-84
2021/06/29 03:35:59;;;;;;;18.07;16.37;;;;;;;20.63;68.70;101225.66;3643717;22;20264;-83
2021/06/29 03:38:24;;;;;;;15.37;13.87;;;;;;;20.54;69.32;101232.75;3601751;40;20241;-86
2021/06/29 03:40:50;;;;;;;14.17;12.87;;;;;;;20.43;69.26;101234.63;3602834;40;20252;-84
2021/06/29 03:43:15;;;;;;;16.87;15.07;;;;;;;20.46;69.25;101230.25;3603152;40;20217;-85
2021/06/29 03:50:38;;;;;;;17.60;15.97;;;;;;;20.33;69.50;101236.53;3592131;40;20278;-85
2021/06/29 03:53:03;;;;;;;19.40;17.60;;;;;;;20.36;69.78;101243.44;3612686;23;20230;-85
2021/06/29 03:55:29;;;;;;;17.37;14.93;;;;;;;20.38;69.33;101244.25;3574441;40;20218;-85
2021/06/29 04:00:24;;;;;;;16.60;14.87;;;;;;;20.54;69.30;101236.19;3591992;40;20269;-85
2021/06/29 04:02:49;;;;;;;17.23;15.43;;;;;;;20.45;69.38;101238.94;3584095;40;20663;-84
2021/06/29 04:05:18;;;;;;;15.50;14.03;;;;;;;20.55;69.15;101242.28;3584114;40;20233;-86
2021/06/29 04:07:44;;;;;;;18.57;16.77;;;;;;;20.67;68.85;101239.47;3592781;40;20238;-87
2021/06/29 04:10:10;;;;;;;16.40;14.80;;;;;;;20.83;67.97;101241.81;3584021;40;20244;-88
2021/06/29 04:12:35;;;;;;;16.67;15.00;;;;;;;20.72;68.21;101245.47;3583925;40;20715;-88
2021/06/29 04:15:01;;;;;;;17.03;15.53;;;;;;;20.73;68.06;101250.66;3584303;40;20226;-85
2021/06/29 04:17:26;;;;;;;15.47;14.03;;;;;;;20.68;68.66;101249.03;3584171;40;20232;-84
2021/06/29 04:19:52;;;;;;;13.50;12.23;;;;;;;20.65;68.30;101246.47;3584242;40;20241;-87
2021/06/29 04:24:45;;;;;;;17.27;15.50;;;;;;;20.79;68.31;101254.91;3600901;40;20253;-87
2021/06/29 04:29:37;;;;;;;16.97;15.10;;;;;;;20.89;68.00;101239.13;3571384;40;20261;-84
2021/06/29 04:32:04;;;;;;;13.83;12.43;;;;;;;20.91;67.54;101237.38;3580502;40;20219;-88
2021/06/29 04:34:29;;;;;;;15.63;13.83;;;;;;;20.93;67.78;101232.16;3572754;40;20231;-84
2021/06/29 04:36:54;;;;;;;14.70;13.30;;;;;;;21.00;67.47;101236.38;3572628;40;20755;-87
2021/06/29 04:39:19;;;;;;;14.40;13.03;;;;;;;21.14;66.78;101229.19;3579940;40;20246;-85
2021/06/29 04:41:45;;;;;;;15.23;13.67;;;;;;;21.20;66.60;101235.16;3572507;40;20281;-85
2021/06/29 04:44:10;;;;;;;15.00;13.50;;;;;;;21.20;66.72;101242.09;3572318;40;20635;-85
2021/06/29 04:46:35;;;;;;;14.03;12.73;;;;;;;21.32;66.38;101237.53;3572666;40;20549;-86
2021/06/29 04:49:01;;;;;;;14.30;13.00;;;;;;;21.44;66.14;101239.06;3572572;40;20235;-85
2021/06/29 04:53:54;;;;;;;15.17;13.83;;;;;;;21.47;65.98;101245.06;3695809;22;20265;-82
2021/06/29 05:06:10;;;;;;;11.20;10.10;;;;;;;21.72;65.39;101235.06;3601547;40;20254;-85
2021/06/29 05:16:46;;;;;;;12.60;11.40;;;;;;;22.01;64.26;101212.72;3627171;22;20740;-85
2021/06/29 05:24:08;;;;;;;12.70;11.60;;;;;;;22.18;63.59;101230.63;3659387;22;21698;-81
2021/06/29 05:34:00;;;;;;;13.10;11.77;;;;;;;22.45;62.23;101235.25;3571373;40;20254;-82
2021/06/29 05:36:25;;;;;;;13.43;12.13;;;;;;;22.41;62.62;101232.72;3563914;40;20219;-82
2021/06/29 05:38:50;;;;;;;12.23;11.23;;;;;;;22.54;61.91;101231.56;3571892;40;20267;-81
2021/06/29 05:41:15;;;;;;;12.73;11.53;;;;;;;22.72;62.11;101237.22;3572613;40;20238;-86
2021/06/29 05:43:41;;;;;;;11.10;10.10;;;;;;;22.72;61.75;101233.75;3572190;40;20210;-81
2021/06/29 05:46:06;;;;;;;13.27;12.00;;;;;;;22.71;61.44;101239.88;3572278;40;20222;-83
2021/06/29 05:48:32;;;;;;;11.30;10.30;;;;;;;22.62;62.08;101243.56;3607863;22;20251;-85
2021/06/29 05:53:27;;;;;;;13.63;12.53;;;;;;;22.81;61.33;101236.13;3617173;22;20695;-85
2021/06/29 06:00:48;;;;;;;11.07;10.20;;;;;;;22.80;61.07;101230.06;3591253;40;20681;-85
2021/06/29 06:03:14;;;;;;;11.27;10.17;;;;;;;22.76;61.20;101230.16;3592027;40;20237;-83
2021/06/29 06:05:39;;;;;;;10.87;9.87;;;;;;;22.84;60.81;101229.09;3592065;40;20291;-83
2021/06/29 06:08:05;;;;;;;9.83;9.10;;;;;;;22.79;61.03;101227.50;3592108;40;20221;-83
2021/06/29 06:15:26;;;;;;;11.33;10.43;;;;;;;22.99;60.28;101213.03;3580623;40;20261;-85
2021/06/29 06:20:19;;;;;;;10.10;9.30;;;;;;;23.13;60.21;101217.91;3610461;39;20272;-87
2021/06/29 06:22:45;;;;;;;11.03;10.13;;;;;;;23.22;60.12;101209.84;3645137;22;20224;-87
2021/06/29 06:25:11;;;;;;;10.60;9.60;;;;;;;23.30;59.55;101216.59;3611946;39;20232;-85
2021/06/29 06:30:05;;;;;;;11.20;10.30;;;;;;;23.71;58.61;101216.31;3610100;39;20260;-87
2021/06/29 06:32:31;;;;;;;10.38;9.38;;;;;;;23.81;58.03;101219.53;3614063;39;20215;-86
2021/06/29 06:34:56;;;;;;;10.38;9.32;;;;;;;24.01;57.05;101223.34;3632524;22;21071;-88
2021/06/29 06:37:22;;;;;;;10.93;10.03;;;;;;;24.07;57.69;101223.13;3591441;40;20247;-84
2021/06/29 06:39:47;;;;;;;10.93;10.03;;;;;;;24.07;57.64;101210.06;3625882;22;20233;-87
2021/06/29 06:49:39;;;;;;;10.37;9.37;;;;;;;24.46;57.22;101206.22;3593389;40;20616;-85
2021/06/29 06:57:00;;;;;;;8.25;7.55;;;;;;;24.93;55.68;101199.47;3622252;23;21089;-86
2021/06/29 06:59:25;;;;;;;8.98;8.18;;;;;;;24.80;56.28;101208.63;3603304;39;20248;-87
2021/06/29 07:06:47;;;;;;;8.15;7.45;;;;;;;24.85;56.34;101189.22;3601826;40;20260;-87
2021/06/29 07:09:15;;;;;;;8.30;7.50;;;;;;;24.70;56.29;101195.00;3615373;22;20252;-84
2021/06/29 07:14:09;;;;;;;6.90;6.30;;;;;;;24.91;56.43;101196.03;3630699;22;20269;-84
2021/06/29 07:16:34;;;;;;;8.00;7.30;;;;;;;25.35;54.34;101196.25;3606901;39;20322;-87
2021/06/29 07:19:00;;;;;;;9.57;8.77;;;;;;;25.40;54.59;101193.44;3612816;39;20228;-85
2021/06/29 07:21:28;;;;;;;10.57;8.43;;;;;;;25.51;54.23;101199.19;3606874;39;20572;-85
2021/06/29 07:23:54;;;;;;;8.95;8.13;;;;;;;25.58;54.80;101191.03;3615379;39;20232;-86
2021/06/29 07:26:20;;;;;;;8.35;7.55;;;;;;;25.71;54.26;101194.94;3613216;39;20232;-87
2021/06/29 07:28:46;;;;;;;9.07;8.38;;;;;;;25.50;55.33;101195.69;3612916;39;20240;-85
2021/06/29 07:31:12;;;;;;;10.20;8.57;;;;;;;25.67;54.96;101188.06;3605754;39;20236;-86
2021/06/29 07:33:37;;;;;;;8.68;7.55;;;;;;;25.93;54.63;101192.38;3603859;39;20887;-85
2021/06/29 07:36:03;;;;;;;9.35;8.45;;;;;;;25.78;54.04;101191.16;3610895;39;20276;-87
2021/06/29 07:38:28;;;;;;;8.55;7.85;;;;;;;25.95;53.39;101195.78;3602506;39;20249;-87
2021/06/29 07:40:53;;;;;;;7.80;7.05;;;;;;;25.90;54.15;101195.94;3603308;39;20738;-86
2021/06/29 07:43:20;;;;;;;8.73;7.93;;;;;;;25.84;54.12;101190.91;3603513;40;20253;-84
2021/06/29 07:45:45;;;;;;;7.93;7.10;;;;;;;26.14;53.84;101187.16;3603113;40;20221;-86
2021/06/29 07:48:11;;;;;;;8.55;7.85;;;;;;;26.25;52.67;101187.59;3602428;40;20937;-84
2021/06/29 07:50:36;;;;;;;10.00;8.55;;;;;;;26.58;51.57;101191.56;3602234;39;20240;-85
2021/06/29 07:53:02;;;;;;;9.20;8.38;;;;;;;26.55;52.38;101189.00;3602275;40;20275;-85
2021/06/29 07:55:28;;;;;;;9.30;8.48;;;;;;;26.54;52.15;101191.69;3610890;39;20385;-85
2021/06/29 07:57:53;;;;;;;9.48;8.57;;;;;;;26.66;52.33;101191.25;3612715;39;20224;-84
2021/06/29 08:00:19;;;;;;;8.13;7.32;;;;;;;26.64;52.87;101193.91;3612774;39;20285;-86
2021/06/29 08:02:44;;;;;;;8.27;7.57;;;;;;;26.81;52.77;101194.09;3606916;39;20231;-87
2021/06/29 08:05:10;;;;;;;8.20;7.53;;;;;;;26.95;51.65;101190.88;3602718;39;20212;-86
2021/06/29 08:07:35;;;;;;;8.57;7.38;;;;;;;26.87;51.69;101183.31;3617438;39;20240;-87
2021/06/29 08:10:00;;;;;;;9.23;8.40;;;;;;;26.93;51.78;101192.72;3614835;39;20799;-85
2021/06/29 08:12:26;;;;;;;7.82;7.03;;;;;;;27.28;51.18;101185.06;3622850;39;20222;-86
2021/06/29 08:14:51;;;;;;;8.13;7.43;;;;;;;27.54;50.33;101186.53;3614583;39;20236;-87
2021/06/29 08:17:16;;;;;;;7.85;7.25;;;;;;;27.43;50.58;101188.78;3607483;39;20232;-85
2021/06/29 08:19:43;;;;;;;8.02;7.43;;;;;;;27.35;50.69;101180.38;3611071;39;20252;-86
2021/06/29 08:22:08;;;;;;;8.77;7.97;;;;;;;27.28;51.46;101178.94;3602312;40;20245;-88
2021/06/29 08:24:34;;;;;;;8.48;7.68;;;;;;;27.10;51.79;101187.59;3609633;39;20213;-87
2021/06/29 08:26:59;;;;;;;10.23;7.43;;;;;;;27.09;51.21;101185.88;3610354;39;20743;-88
2021/06/29 08:29:24;;;;;;;8.70;7.85;;;;;;;26.87;50.95;101192.97;3601998;40;20248;-87
2021/06/29 08:31:50;;;;;;;7.85;7.13;;;;;;;26.95;51.11;101185.63;3602966;40;20212;-86
2021/06/29 08:34:16;;;;;;;8.05;7.32;;;;;;;26.62;51.41;101195.75;3602160;40;20225;-87
2021/06/29 08:36:41;;;;;;;8.38;7.68;;;;;;;26.46;52.43;101189.38;3648215;23;20235;-89
2021/06/29 08:39:12;;;;;;;7.50;6.72;;;;;;;26.56;52.56;101184.59;3622305;39;20212;-86
2021/06/29 08:41:49;;;;;;;10.32;8.27;;;;;;;26.40;52.40;101186.13;3623096;39;20259;-88
2021/06/29 08:44:14;;;;;;;7.20;6.60;;;;;;;26.71;52.18;101181.38;3619140;39;20861;-86
2021/06/29 08:46:41;;;;;;;9.10;8.25;;;;;;;26.75;52.23;101188.22;3614948;39;20215;-87
2021/06/29 08:49:07;;;;;;;7.18;6.47;;;;;;;26.96;52.18;101190.81;3616931;39;20732;-86
2021/06/29 08:51:34;;;;;;;8.38;7.38;;;;;;;27.17;50.73;101192.50;3614470;39;20229;-86
2021/06/29 08:54:01;;;;;;;7.30;6.57;;;;;;;27.34;50.72;101190.03;3615040;39;20236;-86
2021/06/29 08:56:28;;;;;;;8.85;7.28;;;;;;;27.25;50.29;101194.84;3618210;39;20239;-87
2021/06/29 08:58:53;;;;;;;7.03;6.43;;;;;;;26.95;51.20;101196.13;3622231;39;20231;-86
2021/06/29 09:01:19;;;;;;;6.93;6.32;;;;;;;26.89;51.33;101194.59;3621729;39;20705;-87
2021/06/29 09:03:44;;;;;;;5.95;5.35;;;;;;;26.99;51.26;101197.72;3620395;39;20240;-87
2021/06/29 09:06:12;;;;;;;6.07;5.47;;;;;;;27.05;50.95;101192.19;3612295;39;20228;-84
2021/06/29 09:08:39;;;;;;;6.25;5.65;;;;;;;26.93;50.18;101192.72;3605220;39;20225;-85
2021/06/29 09:11:19;;;;;;;6.85;6.20;;;;;;;27.17;49.69;101192.50;3613219;39;20776;-87
2021/06/29 09:14:03;;;;;;;6.70;5.93;;;;;;;27.08;50.21;101198.16;3675121;22;20245;-86
2021/06/29 09:16:28;;;;;;;5.68;5.10;;;;;;;26.86;51.41;101197.38;3602280;40;20225;-88
2021/06/29 09:18:56;;;;;;;6.80;6.18;;;;;;;26.83;50.99;101200.13;3596818;39;20229;-87
2021/06/29 09:21:25;;;;;;;6.55;6.03;;;;;;;26.71;51.17;101203.25;3601745;40;21151;-84
2021/06/29 09:23:52;;;;;;;6.68;6.07;;;;;;;26.74;51.41;101203.13;3601975;40;20209;-87
2021/06/29 09:26:23;;;;;;;7.05;6.13;;;;;;;26.55;52.06;101198.66;3602236;40;20225;-85
2021/06/29 09:29:01;;;;;;;6.25;5.60;;;;;;;26.33;52.82;101210.97;3597361;40;20234;-87
2021/06/29 09:31:31;;;;;;;6.85;6.22;;;;;;;26.27;53.77;101204.16;3595464;40;20231;-87
2021/06/29 09:34:01;;;;;;;7.55;6.93;;;;;;;26.08;54.09;101210.16;3626227;22;20710;-85
2021/06/29 09:36:32;;;;;;;6.90;6.30;;;;;;;25.94;54.24;101208.09;3604481;39;20247;-86
2021/06/29 09:39:00;;;;;;;10.05;6.68;;;;;;;25.68;55.53;101208.16;3588669;40;20268;-85
2021/06/29 09:41:28;;;;;;;7.13;6.50;;;;;;;25.65;56.09;101213.50;3589870;40;20298;-87
2021/06/29 09:44:11;;;;;;;7.80;7.03;;;;;;;25.29;57.66;101221.84;3583529;40;20225;-85
2021/06/29 09:46:38;;;;;;;7.32;6.65;;;;;;;25.16;58.21;101221.38;3622982;23;20225;-85
2021/06/29 09:49:13;;;;;;;8.00;6.75;;;;;;;25.10;59.04;101226.81;3592548;40;20220;-83
2021/06/29 09:51:39;;;;;;;8.18;7.20;;;;;;;24.93;60.02;101233.53;3592173;40;20229;-84
2021/06/29 09:54:09;;;;;;;7.95;7.15;;;;;;;24.66;60.96;101224.81;3591153;40;20224;-87
2021/06/29 09:56:39;;;;;;;8.25;6.60;;;;;;;24.49;62.23;101231.47;3591475;40;20214;-85
2021/06/29 09:59:11;;;;;;;10.77;7.38;;;;;;;24.45;62.66;101229.84;3591831;40;20229;-84
2021/06/29 10:01:36;;;;;;;7.85;7.13;;;;;;;24.47;62.80;101230.63;3581459;40;20242;-83
2021/06/29 10:04:03;;;;;;;7.35;6.65;;;;;;;24.41;62.59;101228.22;3590711;40;20225;-84
2021/06/29 10:06:31;;;;;;;9.43;7.32;;;;;;;24.35;63.38;101231.03;3590998;40;20272;-85
2021/06/29 10:09:05;;;;;;;8.02;7.22;;;;;;;24.28;62.85;101227.75;3591172;40;20230;-85
2021/06/29 10:11:37;;;;;;;8.80;7.88;;;;;;;24.33;63.09;101222.34;3596844;40;20234;-84
2021/06/29 10:14:06;;;;;;;7.57;6.88;;;;;;;24.38;63.01;101218.69;3590841;40;20214;-84
2021/06/29 10:16:46;;;;;;;10.32;7.70;;;;;;;24.34;62.81;101216.22;3591222;40;20232;-87
2021/06/29 10:19:17;;;;;;;8.30;7.50;;;;;;;24.42;63.31;101212.47;3593507;39;20678;-85
2021/06/29 10:21:46;;;;;;;7.25;6.65;;;;;;;24.55;62.68;101211.19;3601299;40;20232;-84
2021/06/29 10:24:14;;;;;;;7.38;6.78;;;;;;;24.68;63.06;101206.44;3607012;39;20219;-86
2021/06/29 10:26:41;;;;;;;6.57;5.97;;;;;;;24.81;63.14;101200.72;3611773;39;21026;-85
2021/06/29 10:29:09;;;;;;;6.25;5.70;;;;;;;24.95;62.05;101187.19;3611408;39;20769;-83
2021/06/29 10:31:37;;;;;;;6.75;6.13;;;;;;;24.93;61.98;101184.59;3611696;39;20241;-87
2021/06/29 10:34:08;;;;;;;6.20;5.60;;;;;;;24.86;62.06;101185.69;3611899;39;20284;-86
2021/06/29 10:36:39;;;;;;;7.90;5.75;;;;;;;24.86;62.01;101183.06;3611800;39;20220;-85
2021/06/29 10:39:12;;;;;;;6.13;5.50;;;;;;;24.97;61.09;101182.72;3601370;39;20224;-83
2021/06/29 10:41:41;;;;;;;6.70;5.85;;;;;;;25.08;60.81;101186.69;3590870;40;20233;-86
2021/06/29 10:44:12;;;;;;;6.55;5.95;;;;;;;25.22;61.17;101178.31;3591393;40;20232;-85
2021/06/29 10:46:41;;;;;;;6.80;6.20;;;;;;;25.31;61.28;101171.03;3591052;40;20233;-86
2021/06/29 10:49:31;;;;;;;5.93;5.53;;;;;;;25.36;60.81;101160.38;3590835;40;20245;-87
2021/06/29 10:52:01;;;;;;;7.40;5.68;;;;;;;25.56;61.13;101161.34;3603503;39;20212;-85
2021/06/29 10:54:46;;;;;;;7.68;6.97;;;;;;;25.71;60.43;101146.81;3602267;39;20219;-86
2021/06/29 10:57:16;;;;;;;7.22;5.85;;;;;;;25.72;60.42;101145.91;3601327;40;20759;-86
2021/06/29 10:59:46;;;;;;;6.88;6.25;;;;;;;25.89;60.21;101136.50;3600151;40;20236;-86
2021/06/29 11:02:14;;;;;;;8.23;7.53;;;;;;;26.03;61.11;101136.84;3590747;40;20293;-85
2021/06/29 11:04:46;;;;;;;8.45;7.63;;;;;;;26.06;61.34;101143.75;3590715;40;20226;-85
2021/06/29 11:07:26;;;;;;;6.00;5.50;;;;;;;26.32;58.23;101140.91;3591093;40;20245;-85
2021/06/29 11:10:06;;;;;;;6.00;4.93;;;;;;;26.48;59.03;101149.91;3594262;39;20232;-85
2021/06/29 11:12:36;;;;;;;5.97;5.57;;;;;;;26.77;57.90;101145.19;3610839;39;20846;-85
2021/06/29 11:15:07;;;;;;;6.45;5.90;;;;;;;26.80;54.37;101150.28;3610973;39;20252;-85
2021/06/29 11:17:49;;;;;;;5.22;4.82;;;;;;;26.96;53.34;101143.47;3610874;39;20240;-86
2021/06/29 11:20:45;;;;;;;5.45;4.95;;;;;;;26.72;53.42;101139.25;3610433;39;20255;-86
2021/06/29 11:23:23;;;;;;;4.88;4.30;;;;;;;26.82;53.23;101139.72;3605043;39;20228;-86
2021/06/29 11:25:52;;;;;;;6.00;5.05;;;;;;;26.79;55.10;101147.72;3601662;40;20232;-87
2021/06/29 11:28:28;;;;;;;4.28;3.67;;;;;;;27.25;53.61;101135.19;3602622;40;20225;-87
2021/06/29 11:31:29;;;;;;;3.97;3.67;;;;;;;27.52;51.09;101144.50;3602785;40;20225;-85
2021/06/29 11:33:58;;;;;;;5.75;5.25;;;;;;;27.77;51.48;101134.53;3602214;40;20873;-90
2021/06/29 11:36:23;;;;;;;5.07;4.57;;;;;;;27.93;50.01;101139.97;3602530;40;20244;-86
2021/06/29 11:38:51;;;;;;;4.90;4.50;;;;;;;27.85;50.11;101135.06;3602687;40;20840;-86
2021/06/29 11:41:25;;;;;;;4.30;4.00;;;;;;;28.01;49.27;101130.78;3602326;40;20251;-85
2021/06/29 11:43:54;;;;;;;4.43;4.10;;;;;;;28.07;49.94;101121.72;3602489;40;20290;-87
2021/06/29 11:46:50;;;;;;;4.07;3.78;;;;;;;28.38;50.26;101121.94;3602697;40;20253;-85
2021/06/29 11:49:18;;;;;;;4.10;3.80;;;;;;;28.33;49.50;101111.63;3602260;40;20237;-85
2021/06/29 11:52:01;;;;;;;3.85;3.55;;;;;;;28.46;49.33;101117.19;3602399;40;20486;-86
2021/06/29 11:54:42;;;;;;;3.78;3.47;;;;;;;28.66;47.83;101110.00;3603093;40;20209;-87
2021/06/29 11:57:34;;;;;;;4.35;3.47;;;;;;;28.88;47.98;101107.94;3602601;40;20215;-87
2021/06/29 12:00:05;;;;;;;4.20;3.85;;;;;;;28.94;47.93;101107.66;3602404;40;20228;-86
2021/06/29 12:02:32;;;;;;;3.75;3.45;;;;;;;28.99;49.02;101105.66;3602636;40;20240;-87
2021/06/29 12:05:05;;;;;;;6.03;3.75;;;;;;;29.01;49.34;101098.50;3596088;39;20235;-87
2021/06/29 12:07:39;;;;;;;4.63;4.22;;;;;;;28.90;48.41;101103.44;3592799;40;20210;-84
2021/06/29 12:10:09;;;;;;;4.53;4.05;;;;;;;28.70;49.28;101113.31;3600872;40;20792;-85
2021/06/29 12:12:35;;;;;;;4.22;3.92;;;;;;;28.72;48.11;101106.16;3592581;40;20229;-87
2021/06/29 12:15:08;;;;;;;4.07;3.78;;;;;;;28.89;46.68;101101.75;3592847;40;20237;-87
2021/06/29 12:17:34;;;;;;;3.40;3.20;;;;;;;29.06;46.21;101103.53;3601045;40;20213;-85
2021/06/29 12:20:08;;;;;;;3.70;3.40;;;;;;;28.76;46.82;101103.31;3593762;40;20301;-86
2021/06/29 12:22:37;;;;;;;3.70;3.40;;;;;;;28.97;46.37;101098.72;3602404;40;20253;-87
2021/06/29 12:25:06;;;;;;;3.13;2.90;;;;;;;29.07;46.65;101097.31;3602644;40;20225;-86
2021/06/29 12:27:32;;;;;;;3.00;2.80;;;;;;;29.15;45.93;101089.88;3602471;40;20211;-87
2021/06/29 12:29:57;;;;;;;4.18;3.67;;;;;;;28.80;46.39;101089.03;3602488;40;20233;-87
2021/06/29 12:32:25;;;;;;;3.88;3.22;;;;;;;29.04;46.48;101085.16;3602761;40;20241;-84
2021/06/29 12:35:10;;;;;;;3.53;3.20;;;;;;;28.81;47.74;101085.47;3602822;40;20232;-87
2021/06/29 12:37:57;;;;;;;3.17;2.88;;;;;;;28.42;46.79;101082.19;3602414;40;20212;-86
2021/06/29 12:40:26;;;;;;;3.10;2.90;;;;;;;28.19;47.18;101079.81;3602721;40;20285;-85
2021/06/29 12:42:52;;;;;;;3.05;2.85;;;;;;;28.16;47.44;101089.66;3602936;40;20253;-87
2021/06/29 12:45:21;;;;;;;3.55;3.25;;;;;;;27.97;47.81;101092.34;3603092;40;20225;-88
2021/06/29 12:47:59;;;;;;;3.47;3.17;;;;;;;27.57;47.99;101091.63;3600947;40;20292;-86
2021/06/29 12:50:24;;;;;;;3.70;3.30;;;;;;;27.44;50.08;101086.06;3592685;40;20313;-86
2021/06/29 12:52:52;;;;;;;3.40;3.10;;;;;;;27.28;50.01;101081.56;3592642;40;20657;-86
2021/06/29 12:55:17;;;;;;;3.88;3.58;;;;;;;27.21;50.54;101083.63;3601173;40;20210;-87
2021/06/29 12:57:48;;;;;;;3.70;3.40;;;;;;;27.20;51.37;101081.94;3592646;40;20257;-87
2021/06/29 13:00:15;;;;;;;3.47;3.28;;;;;;;27.13;51.06;101088.34;3592651;40;20237;-86
2021/06/29 13:02:44;;;;;;;4.07;3.70;;;;;;;27.09;51.38;101091.19;3592611;40;20209;-85
2021/06/29 13:07:38;;;;;;;3.63;3.33;;;;;;;26.86;52.50;101088.72;3601901;40;20245;-84
2021/06/29 13:10:08;;;;;;;3.67;3.20;;;;;;;26.72;52.53;101084.06;3602526;40;20290;-85